Time;durP1;ratioP1;P1;durP2;ratioP2;P2;SDS_P1;SDS_P2;PMS_P1;PMS_P2;Temp;Humidity;BMP_temperature;BMP_pressure;BME280_temperature;BME280_humidity;BME280_pressure;Samples;Min_cycle;Max_cycle;Signal;HPM_P1;HPM_P2
2021/08/22 00:01:13;;;;;;;3.30;2.60;;;20.30;98.80;;;;;;5055231;28;20524;-62
2021/08/22 00:03:39;;;;;;;3.33;3.03;;;20.30;99.10;;;;;;5055179;28;20463;-61
2021/08/22 00:06:07;;;;;;;2.80;2.60;;;20.20;98.70;;;;;;5051499;28;20463;-62
2021/08/22 00:08:37;;;;;;;3.47;3.17;;;20.20;98.70;;;;;;5054862;28;20532;-61
2021/08/22 00:11:04;;;;;;;5.93;3.03;;;20.20;98.70;;;;;;5051516;28;20520;-62
2021/08/22 00:13:31;;;;;;;4.63;3.60;;;20.20;98.80;;;;;;5054289;28;20475;-62
2021/08/22 00:15:58;;;;;;;3.13;2.87;;;20.20;98.70;;;;;;5055207;28;20467;-62
2021/08/22 00:18:24;;;;;;;3.33;3.13;;;20.20;98.70;;;;;;5055043;28;20471;-61
2021/08/22 00:20:51;;;;;;;2.60;2.40;;;20.10;98.60;;;;;;5054754;28;20455;-61
2021/08/22 00:23:19;;;;;;;3.70;3.37;;;20.10;98.60;;;;;;5054258;28;20463;-62
2021/08/22 00:25:45;;;;;;;5.60;3.17;;;20.10;98.70;;;;;;5054804;28;20474;-62
2021/08/22 00:28:12;;;;;;;3.10;2.80;;;20.00;98.70;;;;;;5054861;28;21026;-61
2021/08/22 00:30:39;;;;;;;4.00;3.70;;;20.00;98.60;;;;;;5054540;28;20466;-61
2021/08/22 00:33:05;;;;;;;3.40;3.20;;;20.00;98.40;;;;;;5051644;28;20472;-61
2021/08/22 00:35:32;;;;;;;3.60;3.30;;;20.00;98.50;;;;;;5046675;28;20932;-62
2021/08/22 00:37:59;;;;;;;4.57;4.00;;;19.90;98.80;;;;;;5054708;28;20536;-62
2021/08/22 00:40:27;;;;;;;3.53;3.23;;;19.90;98.50;;;;;;5053155;28;20474;-62
2021/08/22 00:42:53;;;;;;;3.40;3.10;;;19.90;98.50;;;;;;5049294;28;21077;-62
2021/08/22 00:45:20;;;;;;;3.93;3.63;;;19.90;98.50;;;;;;5054536;28;20471;-61
2021/08/22 00:47:48;;;;;;;3.30;3.00;;;19.90;98.50;;;;;;5054136;28;20467;-62
2021/08/22 00:50:16;;;;;;;3.17;2.97;;;19.90;98.50;;;;;;5054653;28;20471;-62
2021/08/22 00:52:43;;;;;;;2.80;2.60;;;19.90;98.50;;;;;;5054219;28;20463;-62
2021/08/22 00:55:10;;;;;;;3.70;3.40;;;19.80;98.40;;;;;;5054417;28;20524;-61
2021/08/22 00:57:39;;;;;;;3.10;2.90;;;19.80;98.40;;;;;;5053850;28;20859;-62
2021/08/22 01:00:07;;;;;;;3.00;2.80;;;19.90;98.50;;;;;;5054332;28;20467;-62
2021/08/22 01:02:36;;;;;;;3.90;3.60;;;19.90;98.50;;;;;;5053955;28;20467;-62
2021/08/22 01:05:11;;;;;;;3.27;2.97;;;19.90;98.50;;;;;;5053055;28;20525;-62
2021/08/22 01:07:44;;;;;;;3.30;3.00;;;19.90;98.50;;;;;;5052297;28;20573;-62
2021/08/22 01:10:12;;;;;;;6.20;3.10;;;19.90;98.50;;;;;;5054399;28;20859;-62
2021/08/22 01:12:43;;;;;;;4.50;3.50;;;19.80;98.40;;;;;;5053449;28;20542;-62
2021/08/22 01:15:12;;;;;;;3.57;3.27;;;19.80;98.60;;;;;;5053796;28;20463;-62
2021/08/22 01:17:44;;;;;;;3.03;2.80;;;19.80;98.60;;;;;;5053699;28;20871;-62
2021/08/22 01:20:16;;;;;;;3.27;3.07;;;19.80;98.60;;;;;;5050035;28;20455;-62
2021/08/22 01:22:45;;;;;;;3.63;3.37;;;19.80;98.60;;;;;;5053544;28;20589;-62
2021/08/22 01:25:13;;;;;;;4.27;3.37;;;19.80;98.70;;;;;;5053841;28;20470;-62
2021/08/22 01:27:43;;;;;;;7.40;3.77;;;19.80;98.70;;;;;;5053554;28;20512;-61
2021/08/22 01:30:13;;;;;;;5.40;3.97;;;19.80;98.70;;;;;;5053602;28;20520;-62
2021/08/22 01:32:42;;;;;;;3.73;3.30;;;19.80;98.80;;;;;;5053368;28;20463;-62
2021/08/22 01:35:13;;;;;;;3.73;3.43;;;19.70;98.60;;;;;;5045802;28;20843;-61
2021/08/22 01:37:41;;;;;;;3.30;3.00;;;19.70;98.70;;;;;;5053093;28;20600;-62
2021/08/22 01:40:11;;;;;;;4.33;3.00;;;19.70;98.80;;;;;;5053504;28;20479;-62
2021/08/22 01:42:39;;;;;;;3.57;3.27;;;19.70;98.80;;;;;;5052973;28;20876;-62
2021/08/22 01:45:08;;;;;;;4.37;3.87;;;19.70;98.80;;;;;;5053348;28;20536;-62
2021/08/22 01:47:36;;;;;;;3.40;3.20;;;19.60;98.80;;;;;;5052828;28;20503;-61
2021/08/22 01:50:05;;;;;;;3.63;3.33;;;19.60;98.90;;;;;;5053125;28;20459;-62
2021/08/22 01:52:33;;;;;;;3.50;2.80;;;19.60;98.90;;;;;;5052910;28;20467;-62
2021/08/22 01:55:01;;;;;;;4.60;3.53;;;19.60;98.90;;;;;;5052750;28;20960;-61
2021/08/22 01:57:28;;;;;;;3.27;2.97;;;19.70;98.90;;;;;;5053304;28;20471;-61
2021/08/22 01:59:54;;;;;;;3.97;3.47;;;19.70;98.90;;;;;;5052536;28;20472;-61
2021/08/22 02:02:21;;;;;;;5.80;3.60;;;19.60;98.80;;;;;;5053252;28;20853;-61
2021/08/22 02:04:51;;;;;;;4.23;3.83;;;19.60;98.90;;;;;;5052913;28;20467;-62
2021/08/22 02:07:22;;;;;;;3.33;3.03;;;19.70;98.90;;;;;;5052884;28;20984;-62
2021/08/22 02:09:54;;;;;;;3.63;3.10;;;19.60;98.90;;;;;;5052610;28;20519;-62
2021/08/22 02:12:22;;;;;;;3.40;3.20;;;19.60;99.00;;;;;;5055000;28;20464;-61
2021/08/22 02:14:55;;;;;;;4.13;3.70;;;19.60;99.00;;;;;;5051877;28;20529;-62
2021/08/22 02:17:24;;;;;;;2.70;2.50;;;19.60;99.10;;;;;;5052756;28;20481;-61
2021/08/22 02:19:52;;;;;;;2.67;2.47;;;19.60;99.10;;;;;;5052609;28;20976;-61
2021/08/22 02:22:20;;;;;;;3.87;3.57;;;19.60;99.10;;;;;;5052707;28;20532;-61
2021/08/22 02:24:47;;;;;;;3.47;3.17;;;19.60;99.00;;;;;;5052442;28;20463;-62
2021/08/22 02:27:14;;;;;;;3.47;3.17;;;19.60;99.10;;;;;;5052068;28;20460;-62
2021/08/22 02:29:48;;;;;;;5.53;3.40;;;19.50;99.10;;;;;;5052562;28;20467;-61
2021/08/22 02:32:15;;;;;;;3.37;3.10;;;19.50;99.10;;;;;;5044673;28;21311;-62
2021/08/22 02:34:42;;;;;;;3.93;3.37;;;19.50;99.20;;;;;;5039133;28;20468;-62
2021/08/22 02:37:09;;;;;;;7.17;3.47;;;19.50;99.20;;;;;;5043501;28;20467;-61
2021/08/22 02:39:37;;;;;;;4.07;3.70;;;19.50;99.30;;;;;;5052639;28;20471;-61
2021/08/22 02:42:05;;;;;;;3.07;2.77;;;19.50;99.20;;;;;;5044453;28;20471;-61
2021/08/22 02:44:31;;;;;;;3.40;3.20;;;19.40;99.20;;;;;;5050584;28;20460;-61
2021/08/22 02:46:58;;;;;;;4.70;3.73;;;19.50;99.20;;;;;;5051801;28;20482;-61
2021/08/22 02:49:25;;;;;;;3.63;3.33;;;19.40;99.20;;;;;;5051922;28;20463;-62
2021/08/22 02:51:52;;;;;;;3.37;3.17;;;19.50;99.20;;;;;;5052211;28;20536;-62
2021/08/22 02:54:18;;;;;;;5.40;3.30;;;19.50;99.30;;;;;;5052088;28;20471;-62
2021/08/22 02:56:46;;;;;;;3.63;3.33;;;19.40;99.20;;;;;;5044671;28;20471;-61
2021/08/22 02:59:13;;;;;;;3.80;3.50;;;19.50;99.30;;;;;;5051668;28;21007;-62
2021/08/22 03:01:39;;;;;;;3.03;2.73;;;19.50;99.30;;;;;;5051942;28;20463;-62
2021/08/22 03:04:06;;;;;;;3.57;3.07;;;19.40;99.20;;;;;;5051556;28;20479;-62
2021/08/22 03:06:32;;;;;;;3.27;2.97;;;19.50;99.30;;;;;;5047607;28;20471;-61
2021/08/22 03:09:00;;;;;;;2.97;2.77;;;19.50;99.20;;;;;;5051742;28;20536;-61
2021/08/22 03:11:26;;;;;;;3.80;2.87;;;19.50;99.20;;;;;;5052199;28;20481;-61
2021/08/22 03:13:54;;;;;;;5.40;4.57;;;19.50;99.10;;;;;;5053336;28;20471;-60
2021/08/22 03:16:21;;;;;;;3.60;3.30;;;19.50;99.10;;;;;;5046014;28;21013;-61
2021/08/22 03:18:48;;;;;;;3.40;3.10;;;19.50;99.10;;;;;;5048396;28;20536;-61
2021/08/22 03:21:14;;;;;;;3.30;3.10;;;19.50;99.10;;;;;;5051813;28;20833;-62
2021/08/22 03:23:41;;;;;;;2.93;2.70;;;19.50;99.10;;;;;;5052235;28;20467;-62
2021/08/22 03:26:08;;;;;;;3.37;3.07;;;19.50;99.10;;;;;;5051838;28;20471;-62
2021/08/22 03:28:35;;;;;;;2.70;2.50;;;19.50;99.10;;;;;;5051001;28;20860;-61
2021/08/22 03:31:03;;;;;;;3.90;3.60;;;19.50;99.10;;;;;;5051630;28;20991;-62
2021/08/22 03:33:30;;;;;;;3.23;3.03;;;19.50;99.10;;;;;;5047308;28;20467;-62
2021/08/22 03:35:56;;;;;;;3.67;3.37;;;19.50;99.10;;;;;;5042526;28;20525;-62
2021/08/22 03:38:23;;;;;;;3.37;3.17;;;19.50;99.10;;;;;;5051994;28;20960;-62
2021/08/22 03:40:49;;;;;;;3.50;3.20;;;19.50;99.10;;;;;;5046915;28;20464;-62
2021/08/22 03:43:16;;;;;;;7.23;3.43;;;19.50;99.10;;;;;;5048685;28;20467;-62
2021/08/22 03:45:43;;;;;;;7.50;3.07;;;19.50;99.10;;;;;;5051867;28;20855;-62
2021/08/22 03:48:11;;;;;;;3.33;3.13;;;19.50;99.10;;;;;;5051523;28;20538;-62
2021/08/22 03:50:37;;;;;;;3.50;3.20;;;19.50;99.10;;;;;;5051465;28;20608;-62
2021/08/22 03:53:04;;;;;;;3.73;3.43;;;19.40;99.10;;;;;;5051584;28;20472;-62
2021/08/22 03:55:31;;;;;;;3.50;3.20;;;19.40;99.20;;;;;;5051434;28;20459;-62
2021/08/22 03:57:57;;;;;;;3.67;3.37;;;19.40;99.20;;;;;;5051631;28;20467;-61
2021/08/22 04:00:24;;;;;;;3.23;2.93;;;19.40;99.20;;;;;;5044481;28;20468;-62
2021/08/22 04:02:50;;;;;;;5.70;3.63;;;19.40;99.20;;;;;;5034407;28;20498;-62
2021/08/22 04:05:18;;;;;;;5.30;3.40;;;19.40;99.20;;;;;;5033293;28;20471;-62
2021/08/22 04:07:48;;;;;;;3.63;3.20;;;19.40;99.20;;;;;;5033996;28;21095;-62
2021/08/22 04:10:15;;;;;;;5.77;4.10;;;19.40;99.20;;;;;;5033806;28;20537;-62
2021/08/22 04:12:42;;;;;;;4.00;3.70;;;19.30;99.10;;;;;;5034307;28;20537;-60
2021/08/22 04:15:09;;;;;;;3.47;3.17;;;19.30;99.10;;;;;;5033574;28;20472;-60
2021/08/22 04:17:36;;;;;;;4.13;3.83;;;19.30;99.20;;;;;;5034910;28;20464;-61
2021/08/22 04:20:02;;;;;;;3.60;3.30;;;19.30;99.20;;;;;;5034987;28;20530;-61
2021/08/22 04:22:30;;;;;;;3.33;2.90;;;19.30;99.10;;;;;;5038046;28;20518;-61
2021/08/22 04:24:57;;;;;;;2.90;2.60;;;19.30;99.00;;;;;;5035305;28;20468;-61
2021/08/22 04:27:24;;;;;;;3.13;2.83;;;19.30;99.00;;;;;;5035212;28;20472;-62
2021/08/22 04:29:50;;;;;;;4.50;4.10;;;19.30;99.00;;;;;;5035335;28;20790;-62
2021/08/22 04:32:18;;;;;;;3.60;3.10;;;19.30;99.00;;;;;;5034836;28;20847;-62
2021/08/22 04:34:44;;;;;;;4.13;3.53;;;19.30;98.90;;;;;;5035049;28;20473;-62
2021/08/22 04:37:11;;;;;;;3.10;2.90;;;19.20;98.90;;;;;;5034711;28;20464;-62
2021/08/22 04:39:39;;;;;;;3.90;3.50;;;19.20;98.90;;;;;;5035163;28;20471;-62
2021/08/22 04:42:06;;;;;;;3.53;3.23;;;19.30;98.90;;;;;;5034463;28;20472;-61
2021/08/22 04:44:33;;;;;;;3.40;3.10;;;19.30;98.90;;;;;;5034799;28;20545;-61
2021/08/22 04:46:59;;;;;;;2.90;2.50;;;19.30;98.80;;;;;;5035099;28;20475;-61
2021/08/22 04:49:26;;;;;;;3.40;3.10;;;19.30;98.70;;;;;;5034709;28;20856;-62
2021/08/22 04:51:52;;;;;;;3.37;3.13;;;19.20;98.60;;;;;;5034961;28;20534;-62
2021/08/22 04:54:22;;;;;;;4.00;3.30;;;19.20;98.60;;;;;;5034386;28;20472;-62
2021/08/22 04:56:50;;;;;;;3.47;2.97;;;19.20;98.60;;;;;;5034807;28;20522;-62
2021/08/22 04:59:16;;;;;;;3.40;3.10;;;19.20;98.70;;;;;;5034067;28;20538;-62
2021/08/22 05:01:43;;;;;;;3.30;3.10;;;19.20;98.60;;;;;;5034819;28;20553;-61
2021/08/22 05:04:09;;;;;;;3.10;2.90;;;19.20;98.50;;;;;;5034216;28;20522;-62
2021/08/22 05:06:36;;;;;;;3.10;2.90;;;19.20;98.50;;;;;;5038642;28;20471;-62
2021/08/22 05:09:02;;;;;;;3.20;3.00;;;19.20;98.30;;;;;;5054072;28;20529;-61
2021/08/22 05:11:29;;;;;;;3.87;3.57;;;19.20;98.30;;;;;;5045350;28;20456;-62
2021/08/22 05:13:57;;;;;;;4.03;3.50;;;19.20;98.20;;;;;;5054371;28;20533;-62
2021/08/22 05:16:23;;;;;;;2.77;2.53;;;19.20;98.20;;;;;;5053899;28;20509;-62
2021/08/22 05:18:50;;;;;;;5.10;3.27;;;19.20;98.10;;;;;;5053700;28;20467;-62
2021/08/22 05:21:17;;;;;;;3.07;2.77;;;19.20;98.10;;;;;;5044081;28;20472;-62
2021/08/22 05:23:43;;;;;;;4.13;2.87;;;19.20;98.10;;;;;;5034236;28;20464;-62
2021/08/22 05:26:10;;;;;;;5.83;2.93;;;19.30;98.10;;;;;;5033972;28;20472;-63
2021/08/22 05:28:36;;;;;;;2.77;2.57;;;19.30;98.00;;;;;;5053605;28;20953;-60
2021/08/22 05:31:04;;;;;;;2.93;2.70;;;19.40;98.00;;;;;;5054095;28;20526;-61
2021/08/22 05:33:33;;;;;;;5.30;3.10;;;19.40;97.70;;;;;;5044669;28;20452;-61
2021/08/22 05:36:14;;;;;;;3.27;3.07;;;19.40;97.50;;;;;;5052912;28;20856;-61
2021/08/22 05:38:40;;;;;;;4.13;3.13;;;19.50;97.30;;;;;;5053755;28;21308;-62
2021/08/22 05:41:07;;;;;;;2.90;2.43;;;19.50;97.30;;;;;;5053822;28;20497;-62
2021/08/22 05:43:34;;;;;;;3.07;2.73;;;19.50;97.30;;;;;;5053447;28;20524;-62
2021/08/22 05:46:00;;;;;;;2.97;2.77;;;19.60;97.30;;;;;;5035014;28;20467;-61
2021/08/22 05:48:28;;;;;;;3.37;2.90;;;19.70;97.00;;;;;;5033253;28;20464;-62
2021/08/22 05:50:55;;;;;;;5.50;5.00;;;19.70;96.70;;;;;;5046131;28;20960;-62
2021/08/22 05:53:21;;;;;;;3.57;3.27;;;19.80;96.90;;;;;;5053165;28;20463;-63
2021/08/22 05:55:48;;;;;;;4.10;3.70;;;19.80;96.70;;;;;;5052969;28;20467;-62
2021/08/22 05:58:14;;;;;;;3.93;2.70;;;19.80;96.60;;;;;;5053518;28;20467;-62
2021/08/22 06:00:41;;;;;;;2.53;2.33;;;19.80;96.20;;;;;;5053082;28;21013;-62
2021/08/22 06:03:08;;;;;;;3.53;2.73;;;19.80;96.10;;;;;;5053541;28;20471;-61
2021/08/22 06:05:36;;;;;;;5.10;2.87;;;19.70;96.10;;;;;;5053072;28;20470;-61
2021/08/22 06:08:03;;;;;;;4.63;3.80;;;19.70;96.20;;;;;;5053415;28;22185;-61
2021/08/22 06:10:30;;;;;;;2.90;2.63;;;19.80;96.20;;;;;;5052842;28;20510;-62
2021/08/22 06:12:56;;;;;;;3.03;2.83;;;19.80;96.10;;;;;;5053407;28;20603;-61
2021/08/22 06:15:23;;;;;;;2.60;2.20;;;19.80;96.10;;;;;;5052721;28;20475;-61
2021/08/22 06:17:49;;;;;;;4.73;2.50;;;19.90;95.90;;;;;;5053248;28;20591;-62
2021/08/22 06:20:16;;;;;;;2.80;2.60;;;19.90;95.70;;;;;;5053237;28;20524;-61
2021/08/22 06:22:44;;;;;;;2.37;2.17;;;20.00;95.70;;;;;;5052217;28;20592;-61
2021/08/22 06:25:11;;;;;;;2.37;2.17;;;20.00;95.60;;;;;;5053064;28;20995;-62
2021/08/22 06:27:38;;;;;;;3.43;2.90;;;20.00;95.30;;;;;;5052675;28;20479;-62
2021/08/22 06:30:05;;;;;;;2.93;2.73;;;20.10;95.20;;;;;;5052788;28;20969;-62
2021/08/22 06:32:32;;;;;;;2.77;2.57;;;20.20;95.00;;;;;;5052379;28;20459;-62
2021/08/22 06:34:58;;;;;;;2.60;2.40;;;20.20;95.10;;;;;;5033008;28;20969;-62
2021/08/22 06:37:25;;;;;;;3.80;2.77;;;20.30;95.10;;;;;;5032400;28;20469;-62
2021/08/22 06:39:53;;;;;;;2.73;2.53;;;20.40;94.80;;;;;;5033076;28;20538;-62
2021/08/22 06:42:19;;;;;;;3.43;2.50;;;20.50;94.60;;;;;;5033070;28;20469;-62
2021/08/22 06:44:46;;;;;;;4.30;2.53;;;20.50;94.60;;;;;;5040766;28;20459;-63
2021/08/22 06:47:13;;;;;;;3.30;2.50;;;20.60;94.30;;;;;;5052852;28;20802;-62
2021/08/22 06:49:40;;;;;;;2.30;2.20;;;20.60;94.10;;;;;;5052144;28;20518;-62
2021/08/22 06:52:07;;;;;;;5.43;2.93;;;20.60;94.00;;;;;;5052665;28;20471;-61
2021/08/22 06:54:35;;;;;;;4.03;2.63;;;20.60;93.90;;;;;;5052338;28;20467;-61
2021/08/22 06:57:04;;;;;;;3.70;2.50;;;20.60;93.80;;;;;;5052533;28;20463;-61
2021/08/22 06:59:30;;;;;;;3.23;2.40;;;20.70;93.90;;;;;;5051923;28;20483;-61
2021/08/22 07:01:57;;;;;;;2.60;1.97;;;20.70;93.90;;;;;;5052829;28;20525;-62
2021/08/22 07:04:23;;;;;;;2.53;2.33;;;20.80;93.70;;;;;;5052331;28;20467;-61
2021/08/22 07:06:50;;;;;;;3.10;2.17;;;20.90;93.50;;;;;;5052475;28;20463;-61
2021/08/22 07:09:16;;;;;;;2.30;2.10;;;20.90;93.30;;;;;;5052466;28;20853;-61
2021/08/22 07:11:43;;;;;;;1.93;1.83;;;21.00;93.30;;;;;;5052124;28;20462;-61
2021/08/22 07:14:11;;;;;;;2.47;2.30;;;21.10;93.40;;;;;;5052491;28;20467;-61
2021/08/22 07:16:39;;;;;;;3.47;3.20;;;21.10;93.20;;;;;;5052021;28;20525;-62
2021/08/22 07:19:06;;;;;;;2.90;2.47;;;21.20;93.10;;;;;;5052243;28;20503;-62
2021/08/22 07:21:33;;;;;;;3.23;2.93;;;21.20;93.10;;;;;;5052067;28;20463;-61
2021/08/22 07:23:59;;;;;;;3.63;2.50;;;21.20;93.00;;;;;;5052475;28;20471;-62
2021/08/22 07:26:26;;;;;;;3.17;2.87;;;21.30;93.10;;;;;;5051943;28;20859;-62
2021/08/22 07:28:53;;;;;;;2.80;2.50;;;21.30;93.10;;;;;;5052372;28;20475;-62
2021/08/22 07:31:21;;;;;;;3.60;3.30;;;21.40;93.30;;;;;;5052171;28;20467;-62
2021/08/22 07:33:47;;;;;;;2.53;2.33;;;21.50;93.10;;;;;;5052577;28;20471;-59
2021/08/22 07:36:14;;;;;;;3.40;3.10;;;21.40;92.90;;;;;;5056268;28;20534;-63
2021/08/22 07:38:41;;;;;;;3.73;2.40;;;21.50;92.90;;;;;;5055619;28;20471;-61
2021/08/22 07:41:07;;;;;;;2.53;2.33;;;21.60;93.00;;;;;;5056342;28;20860;-61
2021/08/22 07:43:34;;;;;;;2.93;2.43;;;21.60;92.90;;;;;;5055521;28;20479;-61
2021/08/22 07:46:01;;;;;;;3.70;3.40;;;21.70;93.00;;;;;;5055779;28;21008;-61
2021/08/22 07:48:29;;;;;;;3.03;2.43;;;21.80;92.80;;;;;;5055765;28;20501;-62
2021/08/22 07:50:56;;;;;;;3.90;2.57;;;21.90;92.70;;;;;;5055803;28;20953;-62
2021/08/22 07:53:22;;;;;;;3.47;2.57;;;21.90;92.60;;;;;;5055874;28;20856;-62
2021/08/22 07:55:49;;;;;;;5.10;4.50;;;22.00;92.70;;;;;;5055359;28;20505;-61
2021/08/22 07:58:15;;;;;;;7.93;4.00;;;22.00;92.60;;;;;;5054948;28;20532;-61
2021/08/22 08:00:42;;;;;;;3.60;3.10;;;22.00;92.20;;;;;;5054631;28;20540;-61
2021/08/22 08:03:08;;;;;;;3.60;3.30;;;22.00;92.30;;;;;;5055313;28;20462;-61
2021/08/22 08:05:36;;;;;;;2.43;2.23;;;22.00;92.50;;;;;;5054405;28;20501;-61
2021/08/22 08:08:03;;;;;;;2.87;2.60;;;22.00;92.60;;;;;;5055122;28;20471;-62
2021/08/22 08:10:30;;;;;;;3.90;3.17;;;22.10;92.60;;;;;;5055181;28;20863;-61
2021/08/22 08:12:57;;;;;;;4.53;2.80;;;22.10;92.50;;;;;;5055520;28;20520;-62
2021/08/22 08:15:23;;;;;;;3.10;2.90;;;22.20;92.40;;;;;;5055378;28;20863;-62
2021/08/22 08:17:50;;;;;;;3.20;3.00;;;22.20;92.40;;;;;;5054913;28;20460;-62
2021/08/22 08:20:16;;;;;;;2.67;2.47;;;22.30;92.40;;;;;;5055404;28;20517;-62
2021/08/22 08:22:44;;;;;;;2.60;2.40;;;22.30;92.40;;;;;;5054963;28;20549;-62
2021/08/22 08:25:11;;;;;;;2.87;2.63;;;22.30;92.30;;;;;;5055181;28;20524;-62
2021/08/22 08:27:38;;;;;;;3.50;2.77;;;22.40;92.30;;;;;;5054875;28;20459;-62
2021/08/22 08:30:05;;;;;;;2.80;2.47;;;22.40;92.30;;;;;;5055258;28;20533;-61
2021/08/22 08:32:32;;;;;;;3.17;2.60;;;22.50;92.40;;;;;;5054503;28;20957;-61
2021/08/22 08:34:58;;;;;;;3.33;2.77;;;22.50;92.30;;;;;;5055217;28;20471;-61
2021/08/22 08:37:25;;;;;;;8.93;2.97;;;22.60;92.40;;;;;;5054851;28;20985;-62
2021/08/22 08:39:53;;;;;;;4.13;3.50;;;22.50;92.30;;;;;;5054308;28;20463;-61
2021/08/22 08:42:22;;;;;;;4.20;2.67;;;22.60;92.40;;;;;;5054965;28;20532;-61
2021/08/22 08:44:50;;;;;;;3.43;3.13;;;22.50;92.40;;;;;;5053517;28;20479;-62
2021/08/22 08:47:16;;;;;;;3.07;2.87;;;22.50;92.40;;;;;;5034755;28;20510;-62
2021/08/22 08:49:47;;;;;;;3.10;2.90;;;22.50;92.60;;;;;;5034370;28;20534;-62
2021/08/22 08:52:18;;;;;;;4.63;3.20;;;22.50;92.70;;;;;;5034911;28;20468;-62
2021/08/22 08:54:44;;;;;;;3.47;3.17;;;22.50;92.80;;;;;;5034370;28;20549;-61
2021/08/22 08:57:14;;;;;;;3.83;3.53;;;22.60;92.90;;;;;;5034640;28;20978;-61
2021/08/22 08:59:40;;;;;;;3.73;3.43;;;22.60;93.00;;;;;;5034160;28;20480;-61
2021/08/22 09:02:07;;;;;;;3.60;3.30;;;22.60;93.10;;;;;;5034814;28;21005;-61
2021/08/22 09:04:35;;;;;;;5.23;3.27;;;22.70;93.20;;;;;;5034233;28;20464;-62
2021/08/22 09:07:47;;;;;;;3.63;3.33;;;22.80;93.10;;;;;;5034713;28;20464;-62
2021/08/22 09:10:49;;;;;;;3.53;3.33;;;22.80;93.00;;;;;;4993194;28;20861;-61
2021/08/22 09:13:57;;;;;;;3.60;3.40;;;22.80;93.10;;;;;;5034077;28;20468;-61
2021/08/22 09:16:57;;;;;;;3.43;3.13;;;22.80;93.20;;;;;;5022140;28;20468;-62
2021/08/22 09:20:24;;;;;;;3.40;3.10;;;22.80;93.20;;;;;;5033751;28;20464;-61
2021/08/22 09:23:30;;;;;;;2.97;2.77;;;22.90;93.20;;;;;;5034810;28;20464;-61
2021/08/22 09:26:39;;;;;;;2.93;2.73;;;22.80;93.10;;;;;;5034074;28;20456;-62
2021/08/22 09:29:45;;;;;;;5.50;3.50;;;22.80;93.10;;;;;;5033773;28;20463;-61
2021/08/22 09:32:39;;;;;;;4.30;3.90;;;22.80;93.10;;;;;;5033729;28;20833;-61
2021/08/22 09:35:43;;;;;;;3.20;2.73;;;22.80;93.30;;;;;;5033647;28;20460;-61
2021/08/22 09:38:58;;;;;;;3.83;3.53;;;22.90;93.40;;;;;;5033425;28;20525;-61
2021/08/22 09:42:10;;;;;;;4.87;3.40;;;22.90;93.30;;;;;;5034263;28;20475;-62
2021/08/22 09:45:09;;;;;;;4.07;3.77;;;22.90;93.30;;;;;;5033568;28;20472;-62
2021/08/22 09:48:13;;;;;;;3.57;3.27;;;22.90;93.30;;;;;;5016430;28;20448;-62
2021/08/22 09:51:34;;;;;;;4.03;3.57;;;22.90;93.30;;;;;;5033467;28;20471;-62
2021/08/22 09:54:44;;;;;;;3.57;3.27;;;22.90;93.30;;;;;;5033685;28;20807;-62
2021/08/22 09:57:48;;;;;;;4.80;4.30;;;23.00;93.30;;;;;;5032343;28;20598;-61
2021/08/22 10:00:52;;;;;;;3.97;3.60;;;23.00;93.20;;;;;;5032986;28;20472;-62
2021/08/22 10:03:47;;;;;;;3.33;3.13;;;23.10;93.00;;;;;;5032898;28;20460;-62
2021/08/22 10:06:41;;;;;;;3.93;3.43;;;23.10;92.80;;;;;;5023018;28;20798;-62
2021/08/22 10:09:09;;;;;;;5.70;3.73;;;23.00;92.90;;;;;;5025489;28;20464;-62
2021/08/22 10:11:39;;;;;;;3.70;3.40;;;23.10;93.00;;;;;;5033401;28;20459;-62
2021/08/22 10:14:09;;;;;;;3.93;3.63;;;23.10;93.10;;;;;;5032792;28;20456;-62
2021/08/22 10:16:37;;;;;;;5.13;3.40;;;23.10;92.90;;;;;;5033500;28;20542;-62
2021/08/22 10:19:06;;;;;;;4.27;3.87;;;23.10;92.80;;;;;;5032669;28;20534;-62
2021/08/22 10:21:33;;;;;;;4.40;4.00;;;23.20;92.80;;;;;;5033255;28;20479;-62
2021/08/22 10:24:03;;;;;;;4.60;3.77;;;23.20;92.80;;;;;;5032758;28;20472;-62
2021/08/22 10:26:49;;;;;;;4.10;3.73;;;23.30;92.90;;;;;;5033196;28;20622;-62
2021/08/22 10:29:18;;;;;;;4.30;4.00;;;23.30;92.90;;;;;;5032566;28;20555;-62
2021/08/22 10:32:13;;;;;;;5.03;4.63;;;23.40;93.00;;;;;;5033005;28;20472;-62
2021/08/22 10:34:43;;;;;;;5.30;4.80;;;23.40;93.10;;;;;;5019756;28;20468;-62
2021/08/22 10:37:28;;;;;;;6.23;5.73;;;23.50;93.50;;;;;;5032832;28;20468;-61
2021/08/22 10:39:57;;;;;;;4.90;4.40;;;23.50;93.80;;;;;;5032406;28;20483;-61
2021/08/22 10:42:26;;;;;;;4.40;3.90;;;23.50;93.10;;;;;;5033257;28;20523;-61
2021/08/22 10:44:53;;;;;;;3.93;3.63;;;23.50;92.90;;;;;;5032891;28;20865;-60
2021/08/22 10:47:39;;;;;;;4.03;3.73;;;23.50;92.70;;;;;;5052727;28;20857;-61
2021/08/22 10:50:07;;;;;;;5.93;4.60;;;23.60;92.60;;;;;;5052444;28;20490;-61
2021/08/22 10:52:34;;;;;;;5.00;4.60;;;23.60;92.90;;;;;;5052786;28;20468;-62
2021/08/22 10:55:29;;;;;;;5.23;4.53;;;23.70;92.80;;;;;;5052271;28;20525;-61
2021/08/22 10:57:57;;;;;;;5.13;4.53;;;23.70;93.10;;;;;;5052076;28;20509;-61
2021/08/22 11:00:25;;;;;;;4.53;4.13;;;23.80;92.90;;;;;;5052496;28;20466;-62
2021/08/22 11:02:53;;;;;;;5.23;4.83;;;23.80;92.80;;;;;;5052253;28;20466;-62
2021/08/22 11:05:21;;;;;;;4.60;4.20;;;23.80;92.60;;;;;;5052640;28;20478;-61
2021/08/22 11:07:51;;;;;;;6.23;5.63;;;23.70;92.30;;;;;;5052962;28;20536;-61
2021/08/22 11:10:18;;;;;;;5.00;4.60;;;23.80;92.40;;;;;;5056825;28;20485;-61
2021/08/22 11:12:45;;;;;;;7.63;5.83;;;23.80;92.40;;;;;;5056364;28;20522;-61
2021/08/22 11:15:26;;;;;;;8.70;7.90;;;23.80;92.80;;;;;;5056476;28;20459;-61
2021/08/22 11:17:54;;;;;;;11.07;10.17;;;23.80;93.90;;;;;;5056232;28;20467;-61
2021/08/22 11:20:27;;;;;;;15.30;13.90;;;23.80;95.00;;;;;;5056571;28;20486;-61
2021/08/22 11:23:02;;;;;;;14.60;13.30;;;23.70;96.00;;;;;;5056185;28;20562;-62
2021/08/22 11:25:29;;;;;;;13.97;12.67;;;23.60;97.00;;;;;;5037148;28;20810;-62
2021/08/22 11:28:07;;;;;;;7.00;6.30;;;23.60;98.00;;;;;;5035997;28;20845;-62
2021/08/22 11:30:34;;;;;;;13.33;9.67;;;23.50;97.90;;;;;;5036510;28;20541;-62
2021/08/22 11:33:00;;;;;;;14.37;11.93;;;23.40;98.90;;;;;;5035829;28;20517;-62
2021/08/22 11:35:28;;;;;;;16.03;11.77;;;23.30;99.90;;;;;;5036339;28;20464;-62
2021/08/22 11:37:58;;;;;;;14.70;11.30;;;23.10;99.90;;;;;;5035795;28;20538;-61
2021/08/22 11:40:26;;;;;;;11.30;9.40;;;23.00;99.90;;;;;;5036204;28;20487;-63
2021/08/22 11:42:54;;;;;;;10.03;8.37;;;22.80;99.90;;;;;;5035670;28;20468;-62
2021/08/22 11:45:23;;;;;;;10.00;9.00;;;22.70;99.90;;;;;;5036007;28;20530;-62
2021/08/22 11:47:51;;;;;;;9.27;8.40;;;22.60;99.90;;;;;;5035667;28;20480;-62
2021/08/22 11:50:21;;;;;;;9.23;8.43;;;22.50;99.90;;;;;;5036136;28;20483;-62
2021/08/22 11:52:51;;;;;;;10.80;8.30;;;22.30;99.90;;;;;;5035604;28;20491;-62
2021/08/22 11:55:20;;;;;;;11.20;9.97;;;22.30;99.90;;;;;;5036005;28;20509;-62
2021/08/22 11:57:47;;;;;;;9.23;8.30;;;22.10;99.90;;;;;;5035399;28;20480;-62
2021/08/22 12:00:18;;;;;;;10.17;9.17;;;22.10;99.90;;;;;;5035824;28;21032;-62
2021/08/22 12:02:55;;;;;;;9.23;7.70;;;21.90;99.90;;;;;;5035971;28;20526;-62
2021/08/22 12:05:24;;;;;;;9.23;8.50;;;21.90;99.90;;;;;;5036111;28;20472;-61
2021/08/22 12:08:03;;;;;;;9.33;8.43;;;21.80;99.90;;;;;;5035252;28;20460;-61
2021/08/22 12:10:32;;;;;;;9.37;8.47;;;21.80;99.90;;;;;;5035383;28;20467;-62
2021/08/22 12:13:02;;;;;;;9.23;8.53;;;21.70;99.90;;;;;;5035590;28;20464;-62
2021/08/22 12:15:30;;;;;;;8.60;7.90;;;21.70;99.90;;;;;;5035039;28;20472;-62
2021/08/22 12:18:21;;;;;;;8.23;7.63;;;21.70;99.90;;;;;;5035521;28;20460;-61
2021/08/22 12:20:50;;;;;;;8.83;7.93;;;21.80;99.90;;;;;;5034043;28;20468;-62
2021/08/22 12:23:18;;;;;;;9.13;8.43;;;21.70;99.90;;;;;;5036588;28;20549;-62
2021/08/22 12:25:45;;;;;;;9.50;8.50;;;21.70;99.90;;;;;;5054811;28;20536;-62
2021/08/22 12:28:22;;;;;;;8.77;7.93;;;21.80;99.90;;;;;;5055239;28;20782;-62
2021/08/22 12:31:00;;;;;;;9.53;8.73;;;21.80;99.90;;;;;;5040563;28;20533;-62
2021/08/22 12:33:30;;;;;;;9.17;8.47;;;21.70;99.90;;;;;;5035286;28;20518;-63
2021/08/22 12:36:05;;;;;;;10.03;9.00;;;21.70;99.90;;;;;;5034933;28;20522;-62
2021/08/22 12:38:38;;;;;;;10.97;10.07;;;21.70;99.90;;;;;;5035036;28;20488;-62
2021/08/22 12:41:27;;;;;;;9.17;8.47;;;21.70;99.90;;;;;;5034937;28;20456;-61
2021/08/22 12:43:56;;;;;;;10.70;9.87;;;21.60;99.90;;;;;;5034477;28;20468;-61
2021/08/22 12:46:23;;;;;;;9.43;8.53;;;21.60;99.90;;;;;;5035035;28;20529;-61
2021/08/22 12:48:50;;;;;;;12.20;11.13;;;21.60;99.90;;;;;;5034613;28;20543;-62
2021/08/22 12:51:18;;;;;;;11.93;10.93;;;21.60;99.90;;;;;;5035045;28;20525;-63
2021/08/22 12:53:46;;;;;;;11.27;10.30;;;21.50;99.90;;;;;;5034646;28;20464;-61
2021/08/22 12:56:12;;;;;;;13.43;11.97;;;21.50;99.90;;;;;;5034904;28;20464;-62
2021/08/22 12:58:39;;;;;;;12.33;11.07;;;21.50;99.90;;;;;;5034549;28;20526;-62
2021/08/22 13:01:05;;;;;;;12.07;11.00;;;21.50;99.90;;;;;;5045853;28;20463;-62
2021/08/22 13:03:32;;;;;;;13.57;12.37;;;21.50;99.90;;;;;;5054688;28;20471;-60